createdAt,value
2018-09-26T00:07:24.536Z,1031.2
2018-09-26T00:17:38.667Z,1031.1
2018-09-26T00:27:52.710Z,1031.0
2018-09-26T00:38:07.689Z,1031.0
2018-09-26T00:49:07.553Z,1030.9
2018-09-26T00:59:21.772Z,1030.6
2018-09-26T01:09:36.405Z,1030.5
2018-09-26T01:20:21.696Z,1030.5
2018-09-26T01:31:06.910Z,1030.6
2018-09-26T01:41:21.085Z,1030.5
2018-09-26T01:52:06.740Z,1030.5
2018-09-26T02:02:18.866Z,1030.2
2018-09-26T02:13:03.672Z,1030.1
2018-09-26T02:23:48.490Z,1030.1
2018-09-26T02:34:34.965Z,1030.1
2018-09-26T02:44:49.404Z,1029.9
2018-09-26T02:55:34.289Z,1029.9
2018-09-26T03:06:20.358Z,1030.0
2018-09-26T03:16:34.215Z,1030.2
2018-09-26T03:27:00.173Z,1029.9
2018-09-26T03:37:12.863Z,1029.8
2018-09-26T03:47:59.356Z,1029.8
2018-09-26T03:58:13.655Z,1029.8
2018-09-26T04:08:28.593Z,1029.7
2018-09-26T04:22:04.702Z,1029.4
2018-09-26T04:32:54.213Z,1029.3
2018-09-26T04:43:05.565Z,1029.3
2018-09-26T04:53:19.589Z,1029.3
2018-09-26T05:03:33.875Z,1029.2
2018-09-26T05:13:49.596Z,1029.4
2018-09-26T05:24:03.535Z,1029.3
2018-09-26T05:34:17.815Z,1029.3
2018-09-26T05:44:32.169Z,1029.3
2018-09-26T05:55:16.836Z,1029.3
2018-09-26T06:05:31.275Z,1029.3
2018-09-26T06:15:43.713Z,1029.0
2018-09-26T06:25:58.174Z,1029.0
2018-09-26T06:36:42.676Z,1029.1
2018-09-26T06:46:57.011Z,1029.0
2018-09-26T06:57:41.872Z,1028.9
2018-09-26T07:07:55.975Z,1028.9
2018-09-26T07:18:09.911Z,1028.9
2018-09-26T07:28:24.344Z,1029.1
2018-09-26T07:38:38.532Z,1028.9
2018-09-26T07:48:50.101Z,1029.0
2018-09-26T07:59:04.094Z,1029.1
2018-09-26T08:09:49.833Z,1029.2
2018-09-26T08:20:04.107Z,1029.2
2018-09-26T08:30:18.023Z,1029.3
2018-09-26T08:40:32.669Z,1029.0
2018-09-26T08:50:46.917Z,1029.0
2018-09-26T09:01:00.935Z,1029.1
2018-09-26T09:11:15.123Z,1029.2
2018-09-26T09:21:29.619Z,1029.1
2018-09-26T09:31:41.538Z,1028.9
2018-09-26T09:42:33.317Z,1028.9
2018-09-26T09:54:56.296Z,1028.6
2018-09-26T10:05:10.499Z,1028.5
2018-09-26T10:15:24.943Z,1028.4
2018-09-26T10:26:14.380Z,1028.3
2018-09-26T10:36:29.044Z,1028.4
2018-09-26T10:46:42.962Z,1028.2
2018-09-26T10:56:55.162Z,1027.9
2018-09-26T11:07:09.483Z,1027.8
2018-09-26T11:17:23.494Z,1027.5
2018-09-26T11:27:38.354Z,1027.7
2018-09-26T11:37:52.530Z,1027.5
2018-09-26T11:48:07.247Z,1027.5
2018-09-26T12:03:56.336Z,1027.5
2018-09-26T12:14:40.992Z,1027.5
2018-09-26T12:24:55.445Z,1027.1
2018-09-26T12:35:45.046Z,1027.2
2018-09-26T12:46:31.144Z,1026.6
2018-09-26T12:57:23.506Z,1027.2
2018-09-26T13:08:09.216Z,1027.0
2018-09-26T13:20:47.771Z,1026.9
2018-09-26T14:28:02.120Z,1025.9
2018-09-26T14:40:58.668Z,1028.4
2018-09-26T15:10:15.833Z,1028.0
2018-09-26T15:29:52.351Z,1025.2
2018-09-26T15:57:13.543Z,1025.5
2018-09-26T16:19:07.207Z,1025.6
2018-09-26T16:30:05.113Z,1025.5
2018-09-26T16:52:46.659Z,1025.6
2018-09-26T17:04:29.174Z,1025.6
2018-09-26T17:16:26.089Z,1025.7
2018-09-26T17:28:29.485Z,1025.8
2018-09-26T17:52:12.172Z,1026.1
2018-09-26T18:03:49.156Z,1026.1
2018-09-26T18:15:22.536Z,1026.1
2018-09-26T18:27:06.364Z,1026.1
2018-09-26T18:38:58.920Z,1026.1
2018-09-26T19:02:43.402Z,1026.1
2018-09-26T19:15:44.355Z,1026.3
2018-09-26T19:27:52.279Z,1026.2
2018-09-26T19:39:51.888Z,1026.3
2018-09-26T20:39:28.789Z,1026.6
